sensor_id;sensor_type;location;lat;lon;timestamp;pressure;altitude;pressure_sealevel;temperature;humidity
54872;BME280;43914;57.680;11.982;2023-02-03T00:01:33;100445.23;;;-1.42;100.00
54872;BME280;43914;57.680;11.982;2023-02-03T00:03:59;100441.98;;;-1.42;100.00
54872;BME280;43914;57.680;11.982;2023-02-03T00:06:25;100441.64;;;-1.39;100.00
54872;BME280;43914;57.680;11.982;2023-02-03T00:08:54;100433.83;;;-1.35;100.00
54872;BME280;43914;57.680;11.982;2023-02-03T00:11:22;100424.59;;;-1.32;100.00
54872;BME280;43914;57.680;11.982;2023-02-03T00:13:49;100418.84;;;-1.33;100.00
54872;BME280;43914;57.680;11.982;2023-02-03T00:16:24;100412.72;;;-1.31;100.00
54872;BME280;43914;57.680;11.982;2023-02-03T00:19:05;100411.23;;;-1.27;100.00
54872;BME280;43914;57.680;11.982;2023-02-03T00:21:31;100406.46;;;-1.24;100.00
54872;BME280;43914;57.680;11.982;2023-02-03T00:23:59;100388.42;;;-1.25;100.00
54872;BME280;43914;57.680;11.982;2023-02-03T00:26:25;100393.81;;;-1.15;100.00
54872;BME280;43914;57.680;11.982;2023-02-03T00:28:53;100387.63;;;-1.12;100.00
54872;BME280;43914;57.680;11.982;2023-02-03T00:31:23;100382.98;;;-1.09;100.00
54872;BME280;43914;57.680;11.982;2023-02-03T00:33:55;100369.16;;;-1.10;100.00
54872;BME280;43914;57.680;11.982;2023-02-03T00:36:22;100365.15;;;-1.06;100.00
54872;BME280;43914;57.680;11.982;2023-02-03T00:38:48;100361.46;;;-1.04;100.00
54872;BME280;43914;57.680;11.982;2023-02-03T00:41:15;100358.57;;;-1.03;100.00
54872;BME280;43914;57.680;11.982;2023-02-03T00:43:41;100352.27;;;-1.00;100.00
54872;BME280;43914;57.680;11.982;2023-02-03T00:46:06;100336.52;;;-0.99;100.00
54872;BME280;43914;57.680;11.982;2023-02-03T00:48:32;100329.27;;;-0.97;100.00
54872;BME280;43914;57.680;11.982;2023-02-03T00:50:58;100321.47;;;-0.94;100.00
54872;BME280;43914;57.680;11.982;2023-02-03T00:53:25;100312.74;;;-0.92;100.00
54872;BME280;43914;57.680;11.982;2023-02-03T00:55:50;100298.52;;;-0.93;100.00
54872;BME280;43914;57.680;11.982;2023-02-03T00:58:16;100291.94;;;-0.89;100.00
54872;BME280;43914;57.680;11.982;2023-02-03T01:00:42;100285.52;;;-0.88;100.00
54872;BME280;43914;57.680;11.982;2023-02-03T01:03:07;100271.80;;;-0.88;100.00
54872;BME280;43914;57.680;11.982;2023-02-03T01:05:36;100267.08;;;-0.89;100.00
54872;BME280;43914;57.680;11.982;2023-02-03T01:08:02;100260.79;;;-0.89;100.00
54872;BME280;43914;57.680;11.982;2023-02-03T01:10:31;100248.93;;;-0.90;100.00
54872;BME280;43914;57.680;11.982;2023-02-03T01:12:56;100238.20;;;-0.90;100.00
54872;BME280;43914;57.680;11.982;2023-02-03T01:15:22;100231.66;;;-0.92;100.00
54872;BME280;43914;57.680;11.982;2023-02-03T01:17:47;100224.33;;;-0.93;100.00
54872;BME280;43914;57.680;11.982;2023-02-03T01:20:13;100212.38;;;-0.93;100.00
54872;BME280;43914;57.680;11.982;2023-02-03T01:22:42;100203.58;;;-0.91;100.00
54872;BME280;43914;57.680;11.982;2023-02-03T01:25:08;100191.09;;;-0.90;100.00
54872;BME280;43914;57.680;11.982;2023-02-03T01:27:33;100179.01;;;-0.89;100.00
54872;BME280;43914;57.680;11.982;2023-02-03T01:29:59;100164.95;;;-0.89;100.00
54872;BME280;43914;57.680;11.982;2023-02-03T01:32:25;100158.88;;;-0.90;100.00
54872;BME280;43914;57.680;11.982;2023-02-03T01:34:50;100154.99;;;-0.92;100.00
54872;BME280;43914;57.680;11.982;2023-02-03T01:37:16;100149.62;;;-0.93;100.00
54872;BME280;43914;57.680;11.982;2023-02-03T01:39:42;100139.05;;;-0.93;100.00
54872;BME280;43914;57.680;11.982;2023-02-03T01:42:12;100129.79;;;-0.94;100.00
54872;BME280;43914;57.680;11.982;2023-02-03T01:44:49;100122.27;;;-0.94;100.00
54872;BME280;43914;57.680;11.982;2023-02-03T01:49:46;100101.35;;;-0.96;100.00
54872;BME280;43914;57.680;11.982;2023-02-03T01:52:14;100087.40;;;-0.98;100.00
54872;BME280;43914;57.680;11.982;2023-02-03T01:54:43;100077.30;;;-0.99;100.00
54872;BME280;43914;57.680;11.982;2023-02-03T01:57:16;100063.34;;;-1.00;100.00
54872;BME280;43914;57.680;11.982;2023-02-03T01:59:43;100053.11;;;-0.98;100.00
54872;BME280;43914;57.680;11.982;2023-02-03T02:02:10;100043.66;;;-0.96;100.00
54872;BME280;43914;57.680;11.982;2023-02-03T02:07:40;100024.16;;;-0.97;100.00
54872;BME280;43914;57.680;11.982;2023-02-03T02:10:08;100015.97;;;-0.97;100.00
54872;BME280;43914;57.680;11.982;2023-02-03T02:12:34;99999.16;;;-0.98;100.00
54872;BME280;43914;57.680;11.982;2023-02-03T02:15:00;99988.84;;;-0.97;100.00
54872;BME280;43914;57.680;11.982;2023-02-03T02:17:58;99969.19;;;-0.97;100.00
54872;BME280;43914;57.680;11.982;2023-02-03T02:44:02;99896.58;;;-0.94;100.00
54872;BME280;43914;57.680;11.982;2023-02-03T02:47:37;99890.23;;;-0.93;100.00
54872;BME280;43914;57.680;11.982;2023-02-03T02:49:45;99883.39;;;-0.93;100.00
54872;BME280;43914;57.680;11.982;2023-02-03T02:52:14;99876.30;;;-0.92;100.00
54872;BME280;43914;57.680;11.982;2023-02-03T02:54:45;99857.30;;;-0.93;100.00
54872;BME280;43914;57.680;11.982;2023-02-03T02:57:13;99848.36;;;-0.93;100.00
54872;BME280;43914;57.680;11.982;2023-02-03T02:59:41;99837.70;;;-0.92;100.00
54872;BME280;43914;57.680;11.982;2023-02-03T03:02:09;99830.28;;;-0.91;100.00
54872;BME280;43914;57.680;11.982;2023-02-03T03:04:35;99820.09;;;-0.92;100.00
54872;BME280;43914;57.680;11.982;2023-02-03T03:07:21;99807.10;;;-0.92;100.00
54872;BME280;43914;57.680;11.982;2023-02-03T03:09:56;99795.23;;;-0.91;100.00
54872;BME280;43914;57.680;11.982;2023-02-03T03:12:33;99785.34;;;-0.88;100.00
54872;BME280;43914;57.680;11.982;2023-02-03T03:15:05;99774.27;;;-0.88;100.00
54872;BME280;43914;57.680;11.982;2023-02-03T03:17:40;99765.41;;;-0.88;100.00
54872;BME280;43914;57.680;11.982;2023-02-03T03:20:13;99749.05;;;-0.88;100.00
54872;BME280;43914;57.680;11.982;2023-02-03T03:22:41;99737.61;;;-0.87;100.00
54872;BME280;43914;57.680;11.982;2023-02-03T03:25:16;99725.41;;;-0.89;100.00
54872;BME280;43914;57.680;11.982;2023-02-03T03:27:47;99709.43;;;-0.89;100.00
54872;BME280;43914;57.680;11.982;2023-02-03T03:30:19;99693.30;;;-0.89;100.00
54872;BME280;43914;57.680;11.982;2023-02-03T03:32:47;99689.52;;;-0.89;100.00
54872;BME280;43914;57.680;11.982;2023-02-03T03:35:14;99685.63;;;-0.88;100.00
54872;BME280;43914;57.680;11.982;2023-02-03T03:40:13;99668.54;;;-0.88;100.00
54872;BME280;43914;57.680;11.982;2023-02-03T03:42:55;99646.60;;;-0.88;100.00
54872;BME280;43914;57.680;11.982;2023-02-03T03:45:46;99631.07;;;-0.88;100.00
54872;BME280;43914;57.680;11.982;2023-02-03T03:48:21;99617.69;;;-0.88;100.00
54872;BME280;43914;57.680;11.982;2023-02-03T03:50:55;99604.52;;;-0.86;100.00
54872;BME280;43914;57.680;11.982;2023-02-03T03:53:22;99598.17;;;-0.85;100.00
54872;BME280;43914;57.680;11.982;2023-02-03T03:55:51;99595.86;;;-0.85;100.00
54872;BME280;43914;57.680;11.982;2023-02-03T03:58:23;99589.06;;;-0.86;100.00
54872;BME280;43914;57.680;11.982;2023-02-03T04:00:50;99581.33;;;-0.84;100.00
54872;BME280;43914;57.680;11.982;2023-02-03T04:03:27;99573.58;;;-0.84;100.00
54872;BME280;43914;57.680;11.982;2023-02-03T04:05:54;99568.53;;;-0.82;100.00
54872;BME280;43914;57.680;11.982;2023-02-03T04:08:20;99553.30;;;-0.81;100.00
54872;BME280;43914;57.680;11.982;2023-02-03T04:10:45;99545.57;;;-0.81;100.00
54872;BME280;43914;57.680;11.982;2023-02-03T04:13:12;99534.95;;;-0.81;100.00
54872;BME280;43914;57.680;11.982;2023-02-03T04:15:40;99519.63;;;-0.80;100.00
54872;BME280;43914;57.680;11.982;2023-02-03T04:18:05;99509.85;;;-0.79;100.00
54872;BME280;43914;57.680;11.982;2023-02-03T04:20:32;99494.78;;;-0.80;100.00
54872;BME280;43914;57.680;11.982;2023-02-03T04:22:58;99485.02;;;-0.79;100.00
54872;BME280;43914;57.680;11.982;2023-02-03T04:25:24;99478.64;;;-0.80;100.00
54872;BME280;43914;57.680;11.982;2023-02-03T04:27:50;99461.11;;;-0.81;100.00
54872;BME280;43914;57.680;11.982;2023-02-03T04:30:16;99450.69;;;-0.82;100.00
54872;BME280;43914;57.680;11.982;2023-02-03T04:32:44;99440.24;;;-0.81;100.00
54872;BME280;43914;57.680;11.982;2023-02-03T04:35:10;99434.52;;;-0.82;100.00
54872;BME280;43914;57.680;11.982;2023-02-03T04:37:35;99421.50;;;-0.82;100.00
54872;BME280;43914;57.680;11.982;2023-02-03T04:40:01;99414.64;;;-0.80;100.00
54872;BME280;43914;57.680;11.982;2023-02-03T04:42:28;99403.26;;;-0.83;100.00
54872;BME280;43914;57.680;11.982;2023-02-03T04:44:54;99391.81;;;-0.86;100.00
54872;BME280;43914;57.680;11.982;2023-02-03T04:47:20;99386.11;;;-0.84;100.00
54872;BME280;43914;57.680;11.982;2023-02-03T04:49:45;99381.25;;;-0.84;100.00
54872;BME280;43914;57.680;11.982;2023-02-03T04:52:11;99371.12;;;-0.85;100.00
54872;BME280;43914;57.680;11.982;2023-02-03T04:54:40;99363.34;;;-0.89;100.00
54872;BME280;43914;57.680;11.982;2023-02-03T04:57:06;99352.20;;;-0.88;100.00
54872;BME280;43914;57.680;11.982;2023-02-03T04:59:32;99344.20;;;-0.89;100.00
54872;BME280;43914;57.680;11.982;2023-02-03T05:01:57;99344.48;;;-0.88;100.00
54872;BME280;43914;57.680;11.982;2023-02-03T05:04:23;99339.94;;;-0.90;100.00
54872;BME280;43914;57.680;11.982;2023-02-03T05:06:49;99329.28;;;-0.91;100.00
54872;BME280;43914;57.680;11.982;2023-02-03T05:09:14;99324.05;;;-0.92;100.00
54872;BME280;43914;57.680;11.982;2023-02-03T05:11:40;99317.23;;;-0.92;100.00
54872;BME280;43914;57.680;11.982;2023-02-03T05:14:06;99312.84;;;-0.92;100.00
54872;BME280;43914;57.680;11.982;2023-02-03T05:16:31;99302.45;;;-0.92;100.00
54872;BME280;43914;57.680;11.982;2023-02-03T05:18:57;99295.59;;;-0.91;100.00
54872;BME280;43914;57.680;11.982;2023-02-03T05:21:22;99286.85;;;-0.91;100.00
54872;BME280;43914;57.680;11.982;2023-02-03T05:23:48;99277.23;;;-0.91;100.00
54872;BME280;43914;57.680;11.982;2023-02-03T05:26:13;99268.39;;;-0.93;100.00
54872;BME280;43914;57.680;11.982;2023-02-03T05:28:39;99257.61;;;-0.94;100.00
54872;BME280;43914;57.680;11.982;2023-02-03T05:31:04;99248.98;;;-0.93;100.00
54872;BME280;43914;57.680;11.982;2023-02-03T05:33:30;99242.01;;;-0.94;100.00
54872;BME280;43914;57.680;11.982;2023-02-03T05:35:56;99236.58;;;-0.94;100.00
54872;BME280;43914;57.680;11.982;2023-02-03T05:38:21;99227.93;;;-0.94;100.00
54872;BME280;43914;57.680;11.982;2023-02-03T05:40:47;99221.21;;;-0.94;100.00
54872;BME280;43914;57.680;11.982;2023-02-03T05:43:32;99211.02;;;-0.93;100.00
54872;BME280;43914;57.680;11.982;2023-02-03T05:45:59;99194.70;;;-0.94;100.00
54872;BME280;43914;57.680;11.982;2023-02-03T05:48:25;99181.85;;;-0.94;100.00
54872;BME280;43914;57.680;11.982;2023-02-03T05:50:50;99176.28;;;-0.94;100.00
54872;BME280;43914;57.680;11.982;2023-02-03T05:53:16;99162.45;;;-0.95;100.00
54872;BME280;43914;57.680;11.982;2023-02-03T05:55:42;99147.77;;;-0.96;100.00
54872;BME280;43914;57.680;11.982;2023-02-03T05:58:08;99141.38;;;-0.95;100.00
54872;BME280;43914;57.680;11.982;2023-02-03T06:00:33;99134.52;;;-0.93;100.00
54872;BME280;43914;57.680;11.982;2023-02-03T06:03:00;99122.70;;;-0.93;100.00
54872;BME280;43914;57.680;11.982;2023-02-03T06:05:26;99119.67;;;-0.93;100.00
54872;BME280;43914;57.680;11.982;2023-02-03T06:07:52;99113.42;;;-0.93;100.00
54872;BME280;43914;57.680;11.982;2023-02-03T06:10:18;99113.52;;;-0.93;100.00
54872;BME280;43914;57.680;11.982;2023-02-03T06:12:44;99112.79;;;-0.93;100.00
54872;BME280;43914;57.680;11.982;2023-02-03T06:15:10;99103.10;;;-0.92;100.00
54872;BME280;43914;57.680;11.982;2023-02-03T06:17:36;99092.94;;;-0.89;100.00
54872;BME280;43914;57.680;11.982;2023-02-03T06:20:04;99090.25;;;-0.89;100.00
54872;BME280;43914;57.680;11.982;2023-02-03T06:22:29;99082.50;;;-0.88;100.00
54872;BME280;43914;57.680;11.982;2023-02-03T06:24:55;99078.42;;;-0.86;100.00
54872;BME280;43914;57.680;11.982;2023-02-03T06:27:21;99076.23;;;-0.85;100.00
54872;BME280;43914;57.680;11.982;2023-02-03T06:29:47;99072.73;;;-0.83;100.00
54872;BME280;43914;57.680;11.982;2023-02-03T06:32:13;99060.80;;;-0.84;100.00
54872;BME280;43914;57.680;11.982;2023-02-03T06:34:38;99049.66;;;-0.83;100.00
54872;BME280;43914;57.680;11.982;2023-02-03T06:37:05;99047.30;;;-0.84;100.00
54872;BME280;43914;57.680;11.982;2023-02-03T06:39:31;99043.23;;;-0.84;100.00
54872;BME280;43914;57.680;11.982;2023-02-03T06:41:56;99042.22;;;-0.82;100.00
54872;BME280;43914;57.680;11.982;2023-02-03T06:44:22;99036.30;;;-0.81;100.00
54872;BME280;43914;57.680;11.982;2023-02-03T06:46:47;99023.63;;;-0.83;100.00
54872;BME280;43914;57.680;11.982;2023-02-03T06:49:15;99023.63;;;-0.83;100.00
54872;BME280;43914;57.680;11.982;2023-02-03T06:51:42;99020.52;;;-0.82;100.00
54872;BME280;43914;57.680;11.982;2023-02-03T06:54:09;99011.47;;;-0.81;100.00
54872;BME280;43914;57.680;11.982;2023-02-03T06:56:35;99007.85;;;-0.80;100.00
54872;BME280;43914;57.680;11.982;2023-02-03T06:59:00;98993.94;;;-0.80;100.00
54872;BME280;43914;57.680;11.982;2023-02-03T07:01:26;98992.71;;;-0.80;100.00
54872;BME280;43914;57.680;11.982;2023-02-03T07:03:54;98989.84;;;-0.79;100.00
54872;BME280;43914;57.680;11.982;2023-02-03T07:06:23;99002.45;;;-0.79;100.00
54872;BME280;43914;57.680;11.982;2023-02-03T07:08:57;99001.89;;;-0.79;100.00
54872;BME280;43914;57.680;11.982;2023-02-03T07:11:24;98997.00;;;-0.77;100.00
54872;BME280;43914;57.680;11.982;2023-02-03T07:13:50;98995.14;;;-0.74;100.00
54872;BME280;43914;57.680;11.982;2023-02-03T07:16:15;99000.81;;;-0.75;100.00
54872;BME280;43914;57.680;11.982;2023-02-03T07:18:41;99011.47;;;-0.74;100.00
54872;BME280;43914;57.680;11.982;2023-02-03T07:21:07;99008.17;;;-0.73;100.00
54872;BME280;43914;57.680;11.982;2023-02-03T07:23:33;99007.38;;;-0.72;100.00
54872;BME280;43914;57.680;11.982;2023-02-03T07:25:59;99013.70;;;-0.70;100.00
54872;BME280;43914;57.680;11.982;2023-02-03T07:28:25;99011.34;;;-0.67;100.00
54872;BME280;43914;57.680;11.982;2023-02-03T07:30:50;99013.05;;;-0.67;100.00
54872;BME280;43914;57.680;11.982;2023-02-03T07:33:16;99008.80;;;-0.66;100.00
54872;BME280;43914;57.680;11.982;2023-02-03T07:35:41;99005.71;;;-0.66;100.00
54872;BME280;43914;57.680;11.982;2023-02-03T07:38:07;99005.03;;;-0.64;100.00
54872;BME280;43914;57.680;11.982;2023-02-03T07:40:32;99013.77;;;-0.65;100.00
54872;BME280;43914;57.680;11.982;2023-02-03T07:42:58;99012.67;;;-0.65;100.00
54872;BME280;43914;57.680;11.982;2023-02-03T07:45:24;99010.76;;;-0.65;100.00
54872;BME280;43914;57.680;11.982;2023-02-03T07:47:49;99019.20;;;-0.65;100.00
54872;BME280;43914;57.680;11.982;2023-02-03T07:50:15;99017.27;;;-0.65;100.00
54872;BME280;43914;57.680;11.982;2023-02-03T07:52:40;99019.93;;;-0.65;100.00
54872;BME280;43914;57.680;11.982;2023-02-03T07:55:06;99019.56;;;-0.65;100.00
54872;BME280;43914;57.680;11.982;2023-02-03T07:57:33;99017.18;;;-0.68;100.00
54872;BME280;43914;57.680;11.982;2023-02-03T07:59:58;99018.99;;;-0.70;100.00
54872;BME280;43914;57.680;11.982;2023-02-03T08:02:25;99020.95;;;-0.76;100.00
54872;BME280;43914;57.680;11.982;2023-02-03T08:04:50;99025.05;;;-0.78;100.00
54872;BME280;43914;57.680;11.982;2023-02-03T08:07:16;99022.69;;;-0.79;100.00
54872;BME280;43914;57.680;11.982;2023-02-03T08:09:41;99025.07;;;-0.80;100.00
54872;BME280;43914;57.680;11.982;2023-02-03T08:12:07;99032.25;;;-0.80;100.00
54872;BME280;43914;57.680;11.982;2023-02-03T08:14:32;99034.52;;;-0.79;100.00
54872;BME280;43914;57.680;11.982;2023-02-03T08:16:57;99037.05;;;-0.80;100.00
54872;BME280;43914;57.680;11.982;2023-02-03T08:19:23;99039.77;;;-0.79;100.00
54872;BME280;43914;57.680;11.982;2023-02-03T08:21:48;99047.82;;;-0.79;100.00
54872;BME280;43914;57.680;11.982;2023-02-03T08:24:14;99043.60;;;-0.82;100.00
54872;BME280;43914;57.680;11.982;2023-02-03T08:26:39;99056.09;;;-0.79;100.00
54872;BME280;43914;57.680;11.982;2023-02-03T08:29:05;99063.09;;;-0.78;100.00
54872;BME280;43914;57.680;11.982;2023-02-03T08:31:30;99066.55;;;-0.78;100.00
54872;BME280;43914;57.680;11.982;2023-02-03T08:33:56;99070.77;;;-0.76;100.00
54872;BME280;43914;57.680;11.982;2023-02-03T08:36:22;99078.65;;;-0.76;100.00
54872;BME280;43914;57.680;11.982;2023-02-03T08:38:47;99081.71;;;-0.73;100.00
54872;BME280;43914;57.680;11.982;2023-02-03T08:41:15;99091.45;;;-0.70;100.00
54872;BME280;43914;57.680;11.982;2023-02-03T08:43:45;99097.63;;;-0.68;100.00
54872;BME280;43914;57.680;11.982;2023-02-03T08:46:11;99106.42;;;-0.68;100.00
54872;BME280;43914;57.680;11.982;2023-02-03T08:48:38;99114.38;;;-0.65;100.00
54872;BME280;43914;57.680;11.982;2023-02-03T08:51:14;99125.98;;;-0.64;100.00
54872;BME280;43914;57.680;11.982;2023-02-03T08:53:40;99132.66;;;-0.61;100.00
54872;BME280;43914;57.680;11.982;2023-02-03T08:56:06;99142.15;;;-0.60;100.00
54872;BME280;43914;57.680;11.982;2023-02-03T08:58:33;99149.61;;;-0.55;100.00
54872;BME280;43914;57.680;11.982;2023-02-03T09:01:13;99153.99;;;-0.49;100.00
54872;BME280;43914;57.680;11.982;2023-02-03T09:03:39;99167.31;;;-0.43;100.00
54872;BME280;43914;57.680;11.982;2023-02-03T09:06:06;99173.20;;;-0.39;100.00
54872;BME280;43914;57.680;11.982;2023-02-03T09:08:32;99179.35;;;-0.35;100.00
54872;BME280;43914;57.680;11.982;2023-02-03T09:10:58;99190.39;;;-0.33;100.00
54872;BME280;43914;57.680;11.982;2023-02-03T09:13:23;99196.23;;;-0.30;100.00
54872;BME280;43914;57.680;11.982;2023-02-03T09:15:49;99204.28;;;-0.25;100.00
54872;BME280;43914;57.680;11.982;2023-02-03T09:18:14;99214.86;;;-0.19;100.00
54872;BME280;43914;57.680;11.982;2023-02-03T09:20:40;99218.17;;;-0.17;100.00
54872;BME280;43914;57.680;11.982;2023-02-03T09:23:06;99227.89;;;-0.13;100.00
54872;BME280;43914;57.680;11.982;2023-02-03T09:25:32;99238.94;;;-0.09;100.00
54872;BME280;43914;57.680;11.982;2023-02-03T09:28:01;99241.79;;;-0.08;100.00
54872;BME280;43914;57.680;11.982;2023-02-03T09:30:27;99253.07;;;-0.01;100.00
54872;BME280;43914;57.680;11.982;2023-02-03T09:32:53;99262.41;;;0.05;100.00
54872;BME280;43914;57.680;11.982;2023-02-03T09:35:21;99273.14;;;0.07;100.00
54872;BME280;43914;57.680;11.982;2023-02-03T09:37:48;99283.98;;;0.12;100.00
54872;BME280;43914;57.680;11.982;2023-02-03T09:40:25;99294.77;;;0.18;100.00
54872;BME280;43914;57.680;11.982;2023-02-03T09:43:49;99299.65;;;0.22;100.00
54872;BME280;43914;57.680;11.982;2023-02-03T09:46:20;99302.67;;;0.29;100.00
54872;BME280;43914;57.680;11.982;2023-02-03T09:48:53;99314.20;;;0.32;100.00
54872;BME280;43914;57.680;11.982;2023-02-03T09:51:35;99323.23;;;0.35;100.00
54872;BME280;43914;57.680;11.982;2023-02-03T09:54:11;99343.64;;;0.42;100.00
54872;BME280;43914;57.680;11.982;2023-02-03T09:56:43;99356.98;;;0.48;100.00
54872;BME280;43914;57.680;11.982;2023-02-03T09:59:15;99374.48;;;0.56;100.00
54872;BME280;43914;57.680;11.982;2023-02-03T10:01:54;99383.89;;;0.57;100.00
54872;BME280;43914;57.680;11.982;2023-02-03T10:04:37;99398.00;;;0.59;100.00
54872;BME280;43914;57.680;11.982;2023-02-03T10:07:11;99413.28;;;0.56;100.00
54872;BME280;43914;57.680;11.982;2023-02-03T10:12:47;99430.45;;;0.44;100.00
54872;BME280;43914;57.680;11.982;2023-02-03T10:18:26;99443.05;;;0.47;100.00
54872;BME280;43914;57.680;11.982;2023-02-03T10:20:57;99456.40;;;0.46;100.00
54872;BME280;43914;57.680;11.982;2023-02-03T10:23:39;99462.88;;;0.42;100.00
54872;BME280;43914;57.680;11.982;2023-02-03T10:26:09;99473.27;;;0.44;100.00
54872;BME280;43914;57.680;11.982;2023-02-03T10:28:43;99482.21;;;0.49;100.00
54872;BME280;43914;57.680;11.982;2023-02-03T10:31:34;99481.96;;;0.49;100.00
54872;BME280;43914;57.680;11.982;2023-02-03T10:34:14;99489.23;;;0.52;100.00
54872;BME280;43914;57.680;11.982;2023-02-03T10:36:57;99501.43;;;0.58;100.00
54872;BME280;43914;57.680;11.982;2023-02-03T10:39:31;99502.06;;;0.59;100.00
54872;BME280;43914;57.680;11.982;2023-02-03T10:42:03;99499.13;;;0.58;100.00
54872;BME280;43914;57.680;11.982;2023-02-03T10:44:53;99493.35;;;0.59;100.00
54872;BME280;43914;57.680;11.982;2023-02-03T10:47:31;99491.55;;;0.60;100.00
54872;BME280;43914;57.680;11.982;2023-02-03T10:50:04;99507.67;;;0.68;100.00
54872;BME280;43914;57.680;11.982;2023-02-03T10:52:35;99523.66;;;0.74;100.00
54872;BME280;43914;57.680;11.982;2023-02-03T10:55:07;99532.27;;;0.80;100.00
54872;BME280;43914;57.680;11.982;2023-02-03T10:57:39;99550.42;;;0.78;100.00
54872;BME280;43914;57.680;11.982;2023-02-03T11:00:33;99573.88;;;0.80;100.00
54872;BME280;43914;57.680;11.982;2023-02-03T11:05:26;99595.83;;;0.79;100.00
54872;BME280;43914;57.680;11.982;2023-02-03T11:07:53;99592.73;;;0.76;100.00
54872;BME280;43914;57.680;11.982;2023-02-03T11:13:24;99599.44;;;0.89;100.00
54872;BME280;43914;57.680;11.982;2023-02-03T11:15:57;99614.30;;;0.89;100.00
54872;BME280;43914;57.680;11.982;2023-02-03T11:18:42;99613.74;;;0.89;100.00
54872;BME280;43914;57.680;11.982;2023-02-03T11:21:14;99615.78;;;0.93;100.00
54872;BME280;43914;57.680;11.982;2023-02-03T11:26:41;99633.09;;;0.95;100.00
54872;BME280;43914;57.680;11.982;2023-02-03T11:29:25;99654.98;;;0.93;100.00
54872;BME280;43914;57.680;11.982;2023-02-03T11:32:05;99669.86;;;0.89;100.00
54872;BME280;43914;57.680;11.982;2023-02-03T11:34:38;99682.66;;;0.89;100.00
54872;BME280;43914;57.680;11.982;2023-02-03T11:42:34;99727.89;;;0.86;100.00
54872;BME280;43914;57.680;11.982;2023-02-03T11:45:24;99738.55;;;0.85;100.00
54872;BME280;43914;57.680;11.982;2023-02-03T12:04:01;99774.83;;;0.95;100.00
54872;BME280;43914;57.680;11.982;2023-02-03T12:06:54;99785.33;;;0.96;100.00
54872;BME280;43914;57.680;11.982;2023-02-03T12:09:59;99789.98;;;0.96;100.00
54872;BME280;43914;57.680;11.982;2023-02-03T12:15:42;99807.81;;;0.95;100.00
54872;BME280;43914;57.680;11.982;2023-02-03T12:24:21;99859.47;;;0.98;100.00
54872;BME280;43914;57.680;11.982;2023-02-03T12:29:40;99885.52;;;0.94;100.00
54872;BME280;43914;57.680;11.982;2023-02-03T12:37:25;99907.64;;;0.94;100.00
54872;BME280;43914;57.680;11.982;2023-02-03T12:40:02;99916.92;;;0.96;100.00
54872;BME280;43914;57.680;11.982;2023-02-03T12:42:38;99933.58;;;0.95;100.00
54872;BME280;43914;57.680;11.982;2023-02-03T12:45:15;99938.96;;;0.94;100.00
54872;BME280;43914;57.680;11.982;2023-02-03T12:47:54;99939.92;;;0.93;100.00
54872;BME280;43914;57.680;11.982;2023-02-03T12:55:43;99957.65;;;0.98;100.00
54872;BME280;43914;57.680;11.982;2023-02-03T12:58:19;99976.67;;;0.99;100.00
54872;BME280;43914;57.680;11.982;2023-02-03T13:06:37;100005.27;;;0.95;100.00
54872;BME280;43914;57.680;11.982;2023-02-03T13:12:31;100015.44;;;0.92;100.00
54872;BME280;43914;57.680;11.982;2023-02-03T13:17:47;100025.39;;;0.92;100.00
54872;BME280;43914;57.680;11.982;2023-02-03T13:20:19;100039.27;;;0.93;100.00
54872;BME280;43914;57.680;11.982;2023-02-03T13:22:46;100042.77;;;0.94;100.00
54872;BME280;43914;57.680;11.982;2023-02-03T13:30:35;100049.33;;;0.93;100.00
54872;BME280;43914;57.680;11.982;2023-02-03T13:41:50;100090.95;;;0.87;100.00
54872;BME280;43914;57.680;11.982;2023-02-03T13:44:00;100113.35;;;0.89;100.00
54872;BME280;43914;57.680;11.982;2023-02-03T13:46:32;100127.52;;;0.90;100.00
54872;BME280;43914;57.680;11.982;2023-02-03T13:49:03;100144.34;;;0.92;100.00
54872;BME280;43914;57.680;11.982;2023-02-03T13:51:51;100150.84;;;0.90;100.00
54872;BME280;43914;57.680;11.982;2023-02-03T13:54:37;100163.27;;;0.91;100.00
54872;BME280;43914;57.680;11.982;2023-02-03T13:57:35;100172.38;;;0.92;100.00
54872;BME280;43914;57.680;11.982;2023-02-03T14:00:06;100182.15;;;0.93;100.00
54872;BME280;43914;57.680;11.982;2023-02-03T14:02:48;100191.36;;;0.93;100.00
54872;BME280;43914;57.680;11.982;2023-02-03T14:05:45;100202.16;;;0.92;100.00
54872;BME280;43914;57.680;11.982;2023-02-03T14:13:52;100231.70;;;0.87;100.00
54872;BME280;43914;57.680;11.982;2023-02-03T14:16:24;100237.23;;;0.84;100.00
54872;BME280;43914;57.680;11.982;2023-02-03T14:18:50;100246.58;;;0.84;100.00
54872;BME280;43914;57.680;11.982;2023-02-03T14:21:21;100255.59;;;0.82;100.00
54872;BME280;43914;57.680;11.982;2023-02-03T14:23:54;100277.77;;;0.80;100.00
54872;BME280;43914;57.680;11.982;2023-02-03T14:26:41;100288.60;;;0.80;100.00
54872;BME280;43914;57.680;11.982;2023-02-03T14:29:10;100297.97;;;0.77;100.00
54872;BME280;43914;57.680;11.982;2023-02-03T14:34:30;100324.55;;;0.72;100.00
54872;BME280;43914;57.680;11.982;2023-02-03T14:42:48;100355.13;;;0.66;100.00
54872;BME280;43914;57.680;11.982;2023-02-03T14:58:55;100431.41;;;0.56;100.00
54872;BME280;43914;57.680;11.982;2023-02-03T15:06:47;100465.83;;;0.47;100.00
54872;BME280;43914;57.680;11.982;2023-02-03T15:09:32;100475.58;;;0.44;100.00
54872;BME280;43914;57.680;11.982;2023-02-03T15:12:33;100487.52;;;0.40;100.00
54872;BME280;43914;57.680;11.982;2023-02-03T15:15:27;100492.00;;;0.31;100.00
54872;BME280;43914;57.680;11.982;2023-02-03T15:17:56;100517.75;;;0.30;100.00
54872;BME280;43914;57.680;11.982;2023-02-03T15:20:33;100516.30;;;0.26;100.00
54872;BME280;43914;57.680;11.982;2023-02-03T15:23:19;100519.22;;;0.21;100.00
54872;BME280;43914;57.680;11.982;2023-02-03T15:28:23;100546.10;;;0.10;100.00